Terminal Aerodrome Forecast
Issued by NWS

Home | Current Version | Previous Version | Text Only | Print | Product List | Glossary On
Versions: 1 2 3 4 5 6 7 8 9 10 11 12 13 14 15 16 17 18
959
FTUS45 KRIW 201139
TAFJAC
TAF
KJAC 201139Z 2012/2112 VRB04KT P6SM VCSH SCT025 OVC040
     FM201800 18006KT P6SM SCT030 BKN060
     FM211000 VRB04KT 5SM -SN OVC030
      AMD LTD TO CLD VIS AND WIND=

USA.gov is the U.S. government's official web portal to all federal, state and local government web resources and services.